sensor_id;sensor_type;location;lat;lon;timestamp;pressure;altitude;pressure_sealevel;temperature;humidity
9538;BME280;4807;48.024;11.726;2023-05-10T00:03:02;94383.22;;;13.16;87.29
9538;BME280;4807;48.024;11.726;2023-05-10T00:06:12;94383.22;;;13.16;87.67
9538;BME280;4807;48.024;11.726;2023-05-10T00:09:21;94380.09;;;13.19;87.20
9538;BME280;4807;48.024;11.726;2023-05-10T00:12:31;94389.34;;;13.05;87.44
9538;BME280;4807;48.024;11.726;2023-05-10T00:15:39;94386.88;;;13.04;87.59
9538;BME280;4807;48.024;11.726;2023-05-10T00:18:48;94391.53;;;12.96;87.58
9538;BME280;4807;48.024;11.726;2023-05-10T00:21:56;94381.38;;;12.87;88.07
9538;BME280;4807;48.024;11.726;2023-05-10T00:25:06;94384.28;;;12.85;88.34
9538;BME280;4807;48.024;11.726;2023-05-10T00:28:17;94378.38;;;12.95;87.75
9538;BME280;4807;48.024;11.726;2023-05-10T00:31:25;94378.88;;;13.04;87.74
9538;BME280;4807;48.024;11.726;2023-05-10T00:34:34;94379.31;;;12.89;88.14
9538;BME280;4807;48.024;11.726;2023-05-10T00:37:42;94380.72;;;13.03;87.41
9538;BME280;4807;48.024;11.726;2023-05-10T00:40:53;94382.34;;;13.04;87.03
9538;BME280;4807;48.024;11.726;2023-05-10T00:44:09;94379.44;;;13.06;87.65
9538;BME280;4807;48.024;11.726;2023-05-10T00:47:18;94376.00;;;13.17;87.24
9538;BME280;4807;48.024;11.726;2023-05-10T00:50:27;94373.75;;;13.02;87.65
9538;BME280;4807;48.024;11.726;2023-05-10T00:53:36;94369.78;;;12.93;87.75
9538;BME280;4807;48.024;11.726;2023-05-10T00:56:45;94370.69;;;12.87;88.37
9538;BME280;4807;48.024;11.726;2023-05-10T00:59:57;94371.06;;;13.02;87.44
9538;BME280;4807;48.024;11.726;2023-05-10T01:03:06;94374.19;;;12.99;87.71
9538;BME280;4807;48.024;11.726;2023-05-10T01:06:15;94379.53;;;12.99;87.84
9538;BME280;4807;48.024;11.726;2023-05-10T01:09:24;94374.19;;;12.87;88.08
9538;BME280;4807;48.024;11.726;2023-05-10T01:12:34;94375.25;;;12.98;87.74
9538;BME280;4807;48.024;11.726;2023-05-10T01:15:45;94367.91;;;12.93;88.34
9538;BME280;4807;48.024;11.726;2023-05-10T01:18:55;94372.66;;;12.91;88.36
9538;BME280;4807;48.024;11.726;2023-05-10T01:22:11;94365.69;;;12.90;88.18
9538;BME280;4807;48.024;11.726;2023-05-10T01:25:40;94369.06;;;12.86;87.77
9538;BME280;4807;48.024;11.726;2023-05-10T01:32:46;94370.47;;;12.88;88.41
9538;BME280;4807;48.024;11.726;2023-05-10T01:36:03;94372.78;;;12.85;87.75
9538;BME280;4807;48.024;11.726;2023-05-10T01:39:20;94366.72;;;12.78;88.01
9538;BME280;4807;48.024;11.726;2023-05-10T01:42:36;94373.66;;;12.67;89.04
9538;BME280;4807;48.024;11.726;2023-05-10T01:45:58;94366.72;;;12.78;88.30
9538;BME280;4807;48.024;11.726;2023-05-10T01:49:11;94369.41;;;12.78;88.67
9538;BME280;4807;48.024;11.726;2023-05-10T01:52:27;94369.88;;;12.86;88.08
9538;BME280;4807;48.024;11.726;2023-05-10T01:55:43;94376.16;;;12.80;88.14
9538;BME280;4807;48.024;11.726;2023-05-10T01:58:55;94369.06;;;12.86;88.18
9538;BME280;4807;48.024;11.726;2023-05-10T02:02:05;94374.16;;;12.76;89.11
9538;BME280;4807;48.024;11.726;2023-05-10T02:05:17;94376.22;;;12.74;88.54
9538;BME280;4807;48.024;11.726;2023-05-10T02:08:27;94366.00;;;12.71;89.65
9538;BME280;4807;48.024;11.726;2023-05-10T02:11:38;94370.88;;;12.74;89.41
9538;BME280;4807;48.024;11.726;2023-05-10T02:14:48;94375.50;;;12.67;89.14
9538;BME280;4807;48.024;11.726;2023-05-10T02:17:59;94371.19;;;12.54;89.59
9538;BME280;4807;48.024;11.726;2023-05-10T02:21:11;94372.03;;;12.66;89.59
9538;BME280;4807;48.024;11.726;2023-05-10T02:24:22;94363.28;;;12.59;89.17
9538;BME280;4807;48.024;11.726;2023-05-10T02:27:34;94369.28;;;12.73;89.36
9538;BME280;4807;48.024;11.726;2023-05-10T02:30:43;94368.09;;;12.69;88.81
9538;BME280;4807;48.024;11.726;2023-05-10T02:33:54;94364.28;;;12.76;88.59
9538;BME280;4807;48.024;11.726;2023-05-10T02:37:05;94366.00;;;12.71;89.17
9538;BME280;4807;48.024;11.726;2023-05-10T02:40:15;94362.22;;;12.48;89.56
9538;BME280;4807;48.024;11.726;2023-05-10T02:43:26;94365.41;;;12.69;89.61
9538;BME280;4807;48.024;11.726;2023-05-10T02:46:37;94367.81;;;12.58;89.97
9538;BME280;4807;48.024;11.726;2023-05-10T02:49:46;94367.25;;;12.56;89.20
9538;BME280;4807;48.024;11.726;2023-05-10T02:53:00;94366.56;;;12.61;89.46
9538;BME280;4807;48.024;11.726;2023-05-10T02:56:13;94359.97;;;12.64;88.84
9538;BME280;4807;48.024;11.726;2023-05-10T02:59:25;94371.69;;;12.63;88.44
9538;BME280;4807;48.024;11.726;2023-05-10T03:02:33;94369.94;;;12.68;88.67
9538;BME280;4807;48.024;11.726;2023-05-10T03:05:43;94369.09;;;12.56;89.11
9538;BME280;4807;48.024;11.726;2023-05-10T03:08:54;94379.19;;;12.54;88.52
9538;BME280;4807;48.024;11.726;2023-05-10T03:12:10;94380.75;;;12.43;89.37
9538;BME280;4807;48.024;11.726;2023-05-10T03:15:22;94379.53;;;12.57;88.73
9538;BME280;4807;48.024;11.726;2023-05-10T03:18:37;94381.03;;;12.53;88.21
9538;BME280;4807;48.024;11.726;2023-05-10T03:21:52;94384.81;;;12.64;88.21
9538;BME280;4807;48.024;11.726;2023-05-10T03:25:06;94391.41;;;12.61;88.94
9538;BME280;4807;48.024;11.726;2023-05-10T03:28:16;94392.88;;;12.57;88.71
9538;BME280;4807;48.024;11.726;2023-05-10T03:31:27;94395.13;;;12.60;88.59
9538;BME280;4807;48.024;11.726;2023-05-10T03:34:42;94393.47;;;12.59;88.55
9538;BME280;4807;48.024;11.726;2023-05-10T03:37:51;94391.28;;;12.56;87.94
9538;BME280;4807;48.024;11.726;2023-05-10T03:41:01;94402.00;;;12.38;88.99
9538;BME280;4807;48.024;11.726;2023-05-10T03:44:10;94389.97;;;12.47;88.35
9538;BME280;4807;48.024;11.726;2023-05-10T03:47:19;94401.69;;;12.46;89.31
9538;BME280;4807;48.024;11.726;2023-05-10T03:50:28;94398.09;;;12.52;88.71
9538;BME280;4807;48.024;11.726;2023-05-10T03:53:36;94398.78;;;12.48;88.33
9538;BME280;4807;48.024;11.726;2023-05-10T03:56:46;94406.34;;;12.33;89.72
9538;BME280;4807;48.024;11.726;2023-05-10T03:59:57;94405.81;;;12.42;88.82
9538;BME280;4807;48.024;11.726;2023-05-10T04:03:05;94414.38;;;12.33;88.99
9538;BME280;4807;48.024;11.726;2023-05-10T04:06:14;94412.06;;;12.36;89.07
9538;BME280;4807;48.024;11.726;2023-05-10T04:09:23;94412.97;;;12.48;88.56
9538;BME280;4807;48.024;11.726;2023-05-10T04:12:33;94410.00;;;12.38;88.96
9538;BME280;4807;48.024;11.726;2023-05-10T04:15:45;94410.53;;;12.58;87.85
9538;BME280;4807;48.024;11.726;2023-05-10T04:18:54;94418.00;;;12.56;88.43
9538;BME280;4807;48.024;11.726;2023-05-10T04:22:03;94412.66;;;12.56;89.00
9538;BME280;4807;48.024;11.726;2023-05-10T04:25:12;94414.19;;;12.64;88.01
9538;BME280;4807;48.024;11.726;2023-05-10T04:28:22;94425.09;;;12.63;88.20
9538;BME280;4807;48.024;11.726;2023-05-10T04:31:31;94417.78;;;12.70;87.78
9538;BME280;4807;48.024;11.726;2023-05-10T04:34:39;94426.56;;;12.58;88.02
9538;BME280;4807;48.024;11.726;2023-05-10T04:37:48;94424.78;;;12.71;87.19
9538;BME280;4807;48.024;11.726;2023-05-10T04:41:04;94423.59;;;12.67;87.43
9538;BME280;4807;48.024;11.726;2023-05-10T04:44:14;94423.31;;;12.56;88.25
9538;BME280;4807;48.024;11.726;2023-05-10T04:47:23;94423.47;;;12.61;88.57
9538;BME280;4807;48.024;11.726;2023-05-10T04:50:31;94425.09;;;12.63;88.39
9538;BME280;4807;48.024;11.726;2023-05-10T04:53:40;94428.03;;;12.73;87.65
9538;BME280;4807;48.024;11.726;2023-05-10T04:56:57;94432.88;;;12.64;87.76
9538;BME280;4807;48.024;11.726;2023-05-10T05:00:08;94430.84;;;12.78;87.75
9538;BME280;4807;48.024;11.726;2023-05-10T05:03:17;94437.34;;;12.82;87.51
9538;BME280;4807;48.024;11.726;2023-05-10T05:06:25;94441.31;;;12.79;87.33
9538;BME280;4807;48.024;11.726;2023-05-10T05:09:34;94445.50;;;12.87;86.56
9538;BME280;4807;48.024;11.726;2023-05-10T05:12:43;94447.22;;;12.81;86.63
9538;BME280;4807;48.024;11.726;2023-05-10T05:15:53;94439.28;;;12.75;86.68
9538;BME280;4807;48.024;11.726;2023-05-10T05:19:02;94451.28;;;12.84;87.29
9538;BME280;4807;48.024;11.726;2023-05-10T05:22:10;94449.25;;;12.68;86.77
9538;BME280;4807;48.024;11.726;2023-05-10T05:25:19;94449.03;;;12.69;86.61
9538;BME280;4807;48.024;11.726;2023-05-10T05:28:31;94456.81;;;12.71;86.23
9538;BME280;4807;48.024;11.726;2023-05-10T05:31:42;94458.59;;;12.58;86.55
9538;BME280;4807;48.024;11.726;2023-05-10T05:34:51;94457.88;;;12.51;86.83
9538;BME280;4807;48.024;11.726;2023-05-10T05:38:00;94460.34;;;12.53;86.67
9538;BME280;4807;48.024;11.726;2023-05-10T05:41:08;94469.25;;;12.47;87.13
9538;BME280;4807;48.024;11.726;2023-05-10T05:44:17;94466.66;;;12.40;86.94
9538;BME280;4807;48.024;11.726;2023-05-10T05:47:26;94467.22;;;12.42;87.29
9538;BME280;4807;48.024;11.726;2023-05-10T05:50:35;94479.84;;;12.35;87.92
9538;BME280;4807;48.024;11.726;2023-05-10T05:53:44;94479.84;;;12.35;87.16
9538;BME280;4807;48.024;11.726;2023-05-10T05:56:54;94486.09;;;12.29;87.65
9538;BME280;4807;48.024;11.726;2023-05-10T06:00:06;94496.63;;;12.24;87.82
9538;BME280;4807;48.024;11.726;2023-05-10T06:03:21;94503.94;;;12.10;87.75
9538;BME280;4807;48.024;11.726;2023-05-10T06:06:30;94514.06;;;11.83;88.80
9538;BME280;4807;48.024;11.726;2023-05-10T06:09:39;94511.56;;;11.57;87.72
9538;BME280;4807;48.024;11.726;2023-05-10T06:12:48;94516.53;;;11.22;89.81
9538;BME280;4807;48.024;11.726;2023-05-10T06:15:57;94521.56;;;11.05;88.88
9538;BME280;4807;48.024;11.726;2023-05-10T06:19:07;94515.88;;;10.95;89.94
9538;BME280;4807;48.024;11.726;2023-05-10T06:22:16;94535.56;;;10.94;90.04
9538;BME280;4807;48.024;11.726;2023-05-10T06:25:25;94533.06;;;10.99;90.25
9538;BME280;4807;48.024;11.726;2023-05-10T06:28:34;94530.53;;;11.11;89.37
9538;BME280;4807;48.024;11.726;2023-05-10T06:31:42;94541.59;;;11.15;89.20
9538;BME280;4807;48.024;11.726;2023-05-10T06:34:52;94540.66;;;11.34;89.60
9538;BME280;4807;48.024;11.726;2023-05-10T06:38:01;94549.78;;;11.51;88.91
9538;BME280;4807;48.024;11.726;2023-05-10T06:41:09;94544.00;;;11.54;88.07
9538;BME280;4807;48.024;11.726;2023-05-10T06:44:18;94544.25;;;11.77;88.75
9538;BME280;4807;48.024;11.726;2023-05-10T06:47:27;94541.03;;;11.94;87.49
9538;BME280;4807;48.024;11.726;2023-05-10T06:50:37;94549.50;;;11.91;86.93
9538;BME280;4807;48.024;11.726;2023-05-10T06:53:46;94554.81;;;11.91;87.30
9538;BME280;4807;48.024;11.726;2023-05-10T06:56:55;94549.84;;;11.94;87.46
9538;BME280;4807;48.024;11.726;2023-05-10T07:00:06;94542.84;;;12.18;87.17
9538;BME280;4807;48.024;11.726;2023-05-10T07:03:16;94544.09;;;12.40;85.90
9538;BME280;4807;48.024;11.726;2023-05-10T07:06:26;94539.75;;;12.76;85.27
9538;BME280;4807;48.024;11.726;2023-05-10T07:09:40;94546.44;;;13.33;83.40
9538;BME280;4807;48.024;11.726;2023-05-10T07:12:49;94548.56;;;13.84;80.60
9538;BME280;4807;48.024;11.726;2023-05-10T07:15:59;94552.63;;;13.98;79.14
9538;BME280;4807;48.024;11.726;2023-05-10T07:19:09;94548.34;;;14.44;78.48
9538;BME280;4807;48.024;11.726;2023-05-10T07:22:19;94556.66;;;15.06;77.10
9538;BME280;4807;48.024;11.726;2023-05-10T07:25:28;94551.88;;;15.08;74.59
9538;BME280;4807;48.024;11.726;2023-05-10T07:28:37;94559.13;;;14.84;75.13
9538;BME280;4807;48.024;11.726;2023-05-10T07:31:45;94558.78;;;15.60;74.28
9538;BME280;4807;48.024;11.726;2023-05-10T07:34:54;94551.16;;;15.12;74.57
9538;BME280;4807;48.024;11.726;2023-05-10T07:38:04;94558.19;;;15.30;73.62
9538;BME280;4807;48.024;11.726;2023-05-10T07:41:12;94551.97;;;15.70;74.08
9538;BME280;4807;48.024;11.726;2023-05-10T07:44:21;94558.41;;;15.40;71.62
9538;BME280;4807;48.024;11.726;2023-05-10T07:47:30;94564.31;;;15.42;73.12
9538;BME280;4807;48.024;11.726;2023-05-10T07:50:38;94577.81;;;15.19;75.00
9538;BME280;4807;48.024;11.726;2023-05-10T07:53:49;94570.72;;;15.41;73.76
9538;BME280;4807;48.024;11.726;2023-05-10T07:56:57;94573.75;;;15.73;71.95
9538;BME280;4807;48.024;11.726;2023-05-10T08:00:08;94571.84;;;16.02;72.07
9538;BME280;4807;48.024;11.726;2023-05-10T08:03:19;94569.88;;;16.14;68.29
9538;BME280;4807;48.024;11.726;2023-05-10T08:06:28;94566.47;;;16.02;68.33
9538;BME280;4807;48.024;11.726;2023-05-10T08:09:38;94565.63;;;15.40;70.33
9538;BME280;4807;48.024;11.726;2023-05-10T08:12:49;94569.38;;;15.27;71.53
9538;BME280;4807;48.024;11.726;2023-05-10T08:15:58;94571.50;;;15.25;70.81
9538;BME280;4807;48.024;11.726;2023-05-10T08:19:07;94568.78;;;14.97;72.72
9538;BME280;4807;48.024;11.726;2023-05-10T08:22:16;94563.44;;;14.97;72.32
9538;BME280;4807;48.024;11.726;2023-05-10T08:25:25;94570.72;;;15.41;70.05
9538;BME280;4807;48.024;11.726;2023-05-10T08:28:34;94577.88;;;15.07;72.45
9538;BME280;4807;48.024;11.726;2023-05-10T08:31:42;94565.34;;;14.61;70.62
9538;BME280;4807;48.024;11.726;2023-05-10T08:34:51;94570.50;;;14.51;73.12
9538;BME280;4807;48.024;11.726;2023-05-10T08:37:59;94573.47;;;15.30;71.19
9538;BME280;4807;48.024;11.726;2023-05-10T08:41:10;94576.53;;;15.21;69.77
9538;BME280;4807;48.024;11.726;2023-05-10T08:44:20;94574.47;;;15.97;70.58
9538;BME280;4807;48.024;11.726;2023-05-10T08:47:29;94565.84;;;16.12;67.65
9538;BME280;4807;48.024;11.726;2023-05-10T08:50:40;94566.31;;;16.25;66.01
9538;BME280;4807;48.024;11.726;2023-05-10T08:53:50;94562.78;;;14.55;68.84
9538;BME280;4807;48.024;11.726;2023-05-10T08:57:00;94576.78;;;14.45;71.82
9538;BME280;4807;48.024;11.726;2023-05-10T09:00:10;94573.72;;;14.30;72.66
9538;BME280;4807;48.024;11.726;2023-05-10T09:03:20;94577.69;;;14.16;71.08
9538;BME280;4807;48.024;11.726;2023-05-10T09:06:28;94571.19;;;14.35;72.98
9538;BME280;4807;48.024;11.726;2023-05-10T09:09:37;94578.34;;;13.99;73.27
9538;BME280;4807;48.024;11.726;2023-05-10T09:12:48;94576.16;;;13.55;74.70
9538;BME280;4807;48.024;11.726;2023-05-10T09:15:58;94583.25;;;13.19;80.18
9538;BME280;4807;48.024;11.726;2023-05-10T09:19:19;94582.72;;;12.92;80.25
9538;BME280;4807;48.024;11.726;2023-05-10T09:22:28;94582.81;;;12.86;79.73
9538;BME280;4807;48.024;11.726;2023-05-10T09:25:36;94587.25;;;12.92;80.90
9538;BME280;4807;48.024;11.726;2023-05-10T09:28:56;94593.34;;;12.81;80.03
9538;BME280;4807;48.024;11.726;2023-05-10T09:32:04;94588.78;;;12.81;81.25
9538;BME280;4807;48.024;11.726;2023-05-10T09:35:17;94584.72;;;12.97;81.99
9538;BME280;4807;48.024;11.726;2023-05-10T09:38:26;94577.75;;;12.96;79.98
9538;BME280;4807;48.024;11.726;2023-05-10T09:41:34;94581.16;;;13.21;79.52
9538;BME280;4807;48.024;11.726;2023-05-10T09:44:46;94575.34;;;13.24;79.25
9538;BME280;4807;48.024;11.726;2023-05-10T09:47:55;94575.19;;;13.38;79.34
9538;BME280;4807;48.024;11.726;2023-05-10T09:51:03;94579.63;;;13.44;80.11
9538;BME280;4807;48.024;11.726;2023-05-10T09:54:14;94582.47;;;13.60;79.61
9538;BME280;4807;48.024;11.726;2023-05-10T09:57:24;94573.03;;;13.58;78.79
9538;BME280;4807;48.024;11.726;2023-05-10T10:00:37;94576.56;;;13.82;78.78
9538;BME280;4807;48.024;11.726;2023-05-10T10:03:46;94567.09;;;14.44;77.44
9538;BME280;4807;48.024;11.726;2023-05-10T10:07:00;94580.72;;;14.77;76.27
9538;BME280;4807;48.024;11.726;2023-05-10T10:10:10;94580.19;;;15.04;72.71
9538;BME280;4807;48.024;11.726;2023-05-10T10:13:19;94577.06;;;15.35;73.75
9538;BME280;4807;48.024;11.726;2023-05-10T10:16:30;94576.53;;;15.61;72.23
9538;BME280;4807;48.024;11.726;2023-05-10T10:19:39;94574.75;;;16.84;68.17
9538;BME280;4807;48.024;11.726;2023-05-10T10:22:48;94583.09;;;16.88;68.43
9538;BME280;4807;48.024;11.726;2023-05-10T10:25:57;94572.44;;;18.17;64.39
9538;BME280;4807;48.024;11.726;2023-05-10T10:29:19;94572.28;;;17.48;62.98
9538;BME280;4807;48.024;11.726;2023-05-10T10:32:54;94571.59;;;18.80;61.75
9538;BME280;4807;48.024;11.726;2023-05-10T10:36:16;94561.88;;;18.10;58.96
9538;BME280;4807;48.024;11.726;2023-05-10T10:39:24;94560.47;;;17.05;63.19
9538;BME280;4807;48.024;11.726;2023-05-10T10:42:46;94554.31;;;16.66;63.27
9538;BME280;4807;48.024;11.726;2023-05-10T10:46:11;94559.34;;;17.67;63.40
9538;BME280;4807;48.024;11.726;2023-05-10T10:49:22;94553.41;;;18.65;59.22
9538;BME280;4807;48.024;11.726;2023-05-10T10:52:32;94566.28;;;19.00;58.46
9538;BME280;4807;48.024;11.726;2023-05-10T10:55:48;94558.63;;;18.82;57.52
9538;BME280;4807;48.024;11.726;2023-05-10T10:59:00;94557.03;;;18.44;58.35
9538;BME280;4807;48.024;11.726;2023-05-10T11:02:08;94557.81;;;18.77;58.92
9538;BME280;4807;48.024;11.726;2023-05-10T11:05:42;94551.66;;;18.49;61.94
9538;BME280;4807;48.024;11.726;2023-05-10T11:08:52;94547.50;;;18.32;59.29
9538;BME280;4807;48.024;11.726;2023-05-10T11:12:08;94536.09;;;17.87;61.22
9538;BME280;4807;48.024;11.726;2023-05-10T11:15:17;94537.47;;;17.63;62.16
9538;BME280;4807;48.024;11.726;2023-05-10T11:18:27;94547.22;;;17.69;60.45
9538;BME280;4807;48.024;11.726;2023-05-10T11:21:46;94554.66;;;17.13;62.50
9538;BME280;4807;48.024;11.726;2023-05-10T11:24:58;94543.09;;;17.35;63.82
9538;BME280;4807;48.024;11.726;2023-05-10T11:28:07;94553.59;;;15.42;68.51
9538;BME280;4807;48.024;11.726;2023-05-10T11:31:17;94555.75;;;15.28;71.76
9538;BME280;4807;48.024;11.726;2023-05-10T11:34:27;94558.81;;;14.69;73.55
9538;BME280;4807;48.024;11.726;2023-05-10T11:37:41;94565.56;;;14.71;74.35
9538;BME280;4807;48.024;11.726;2023-05-10T11:40:52;94578.13;;;14.36;77.54
9538;BME280;4807;48.024;11.726;2023-05-10T11:44:02;94580.84;;;13.71;80.91
9538;BME280;4807;48.024;11.726;2023-05-10T11:47:12;94585.47;;;12.86;83.14
9538;BME280;4807;48.024;11.726;2023-05-10T11:50:20;94586.06;;;12.51;83.15
9538;BME280;4807;48.024;11.726;2023-05-10T11:53:31;94590.44;;;12.46;83.18
9538;BME280;4807;48.024;11.726;2023-05-10T11:56:41;94608.16;;;12.40;83.73
9538;BME280;4807;48.024;11.726;2023-05-10T11:59:53;94615.88;;;12.67;82.77
9538;BME280;4807;48.024;11.726;2023-05-10T12:03:03;94619.09;;;12.75;82.06
9538;BME280;4807;48.024;11.726;2023-05-10T12:06:11;94622.09;;;12.42;82.38
9538;BME280;4807;48.024;11.726;2023-05-10T12:09:21;94621.50;;;12.40;82.63
9538;BME280;4807;48.024;11.726;2023-05-10T12:12:38;94636.47;;;12.41;82.77
9538;BME280;4807;48.024;11.726;2023-05-10T12:15:48;94635.44;;;12.42;83.49
9538;BME280;4807;48.024;11.726;2023-05-10T12:18:59;94640.94;;;12.47;83.72
9538;BME280;4807;48.024;11.726;2023-05-10T12:22:11;94649.53;;;12.49;83.02
9538;BME280;4807;48.024;11.726;2023-05-10T12:25:23;94658.50;;;12.37;83.17
9538;BME280;4807;48.024;11.726;2023-05-10T12:28:32;94665.53;;;12.31;83.20
9538;BME280;4807;48.024;11.726;2023-05-10T12:31:54;94661.00;;;12.32;83.23
9538;BME280;4807;48.024;11.726;2023-05-10T12:35:04;94665.84;;;12.16;82.66
9538;BME280;4807;48.024;11.726;2023-05-10T12:38:27;94670.13;;;12.17;82.95
9538;BME280;4807;48.024;11.726;2023-05-10T12:41:39;94674.56;;;12.30;83.65
9538;BME280;4807;48.024;11.726;2023-05-10T12:44:49;94672.66;;;12.37;83.46
9538;BME280;4807;48.024;11.726;2023-05-10T12:47:58;94668.03;;;12.26;84.18
9538;BME280;4807;48.024;11.726;2023-05-10T12:51:07;94670.00;;;12.37;84.87
9538;BME280;4807;48.024;11.726;2023-05-10T12:54:18;94673.97;;;12.53;83.64
9538;BME280;4807;48.024;11.726;2023-05-10T12:57:28;94676.13;;;12.63;83.81
9538;BME280;4807;48.024;11.726;2023-05-10T13:00:36;94667.22;;;12.69;82.73
9538;BME280;4807;48.024;11.726;2023-05-10T13:03:44;94660.41;;;12.91;82.11
9538;BME280;4807;48.024;11.726;2023-05-10T13:06:53;94661.31;;;12.85;82.66
9538;BME280;4807;48.024;11.726;2023-05-10T13:10:03;94667.25;;;12.87;82.21
9538;BME280;4807;48.024;11.726;2023-05-10T13:13:13;94664.59;;;12.87;82.38
9538;BME280;4807;48.024;11.726;2023-05-10T13:16:22;94660.66;;;13.08;81.40
9538;BME280;4807;48.024;11.726;2023-05-10T13:19:30;94669.53;;;13.26;81.38
9538;BME280;4807;48.024;11.726;2023-05-10T13:22:38;94663.56;;;13.43;79.95
9538;BME280;4807;48.024;11.726;2023-05-10T13:25:47;94670.38;;;13.57;78.84
9538;BME280;4807;48.024;11.726;2023-05-10T13:28:57;94673.13;;;13.50;79.75
9538;BME280;4807;48.024;11.726;2023-05-10T13:32:05;94672.63;;;13.71;78.25
9538;BME280;4807;48.024;11.726;2023-05-10T13:35:14;94679.44;;;13.56;78.04
9538;BME280;4807;48.024;11.726;2023-05-10T13:38:22;94677.78;;;13.55;78.38
9538;BME280;4807;48.024;11.726;2023-05-10T13:41:31;94670.38;;;13.57;78.60
9538;BME280;4807;48.024;11.726;2023-05-10T13:44:40;94674.59;;;13.64;79.54
9538;BME280;4807;48.024;11.726;2023-05-10T13:47:48;94669.28;;;13.76;77.92
9538;BME280;4807;48.024;11.726;2023-05-10T13:50:57;94673.00;;;13.75;77.91
9538;BME280;4807;48.024;11.726;2023-05-10T13:54:05;94665.50;;;13.65;77.54
9538;BME280;4807;48.024;11.726;2023-05-10T13:57:14;94668.81;;;13.79;77.40
9538;BME280;4807;48.024;11.726;2023-05-10T14:00:25;94652.75;;;13.79;76.22
9538;BME280;4807;48.024;11.726;2023-05-10T14:03:34;94659.19;;;13.78;77.18
9538;BME280;4807;48.024;11.726;2023-05-10T14:06:43;94659.91;;;13.97;77.25
9538;BME280;4807;48.024;11.726;2023-05-10T14:09:51;94658.75;;;13.93;76.74
9538;BME280;4807;48.024;11.726;2023-05-10T14:13:00;94661.66;;;13.91;76.58
9538;BME280;4807;48.024;11.726;2023-05-10T14:16:09;94656.94;;;13.75;76.17
9538;BME280;4807;48.024;11.726;2023-05-10T14:19:19;94653.06;;;13.59;76.86
9538;BME280;4807;48.024;11.726;2023-05-10T14:22:27;94651.63;;;13.57;77.19
9538;BME280;4807;48.024;11.726;2023-05-10T14:25:36;94653.59;;;13.50;77.40
9538;BME280;4807;48.024;11.726;2023-05-10T14:28:48;94655.97;;;13.40;77.58
9538;BME280;4807;48.024;11.726;2023-05-10T14:31:58;94655.75;;;13.71;77.01
9538;BME280;4807;48.024;11.726;2023-05-10T14:35:07;94650.09;;;13.79;76.64
9538;BME280;4807;48.024;11.726;2023-05-10T14:38:19;94656.66;;;13.35;78.48
9538;BME280;4807;48.024;11.726;2023-05-10T14:41:27;94652.97;;;13.66;76.90
9538;BME280;4807;48.024;11.726;2023-05-10T14:44:37;94652.00;;;13.90;77.50
9538;BME280;4807;48.024;11.726;2023-05-10T14:47:48;94645.59;;;13.31;77.78
9538;BME280;4807;48.024;11.726;2023-05-10T14:50:56;94649.47;;;13.65;77.27
9538;BME280;4807;48.024;11.726;2023-05-10T14:54:04;94661.75;;;13.85;76.11
9538;BME280;4807;48.024;11.726;2023-05-10T14:57:13;94660.03;;;13.90;76.46
9538;BME280;4807;48.024;11.726;2023-05-10T15:00:22;94659.00;;;13.61;78.33
9538;BME280;4807;48.024;11.726;2023-05-10T15:03:32;94664.03;;;13.69;77.60
9538;BME280;4807;48.024;11.726;2023-05-10T15:06:41;94670.13;;;13.88;76.94
9538;BME280;4807;48.024;11.726;2023-05-10T15:09:50;94670.00;;;13.83;77.34
9538;BME280;4807;48.024;11.726;2023-05-10T15:12:59;94680.16;;;13.63;77.71
9538;BME280;4807;48.024;11.726;2023-05-10T15:16:07;94685.69;;;13.31;77.25
9538;BME280;4807;48.024;11.726;2023-05-10T15:19:17;94684.19;;;12.99;79.86
9538;BME280;4807;48.024;11.726;2023-05-10T15:22:25;94679.56;;;13.06;79.98
9538;BME280;4807;48.024;11.726;2023-05-10T15:25:35;94682.53;;;12.98;79.30
9538;BME280;4807;48.024;11.726;2023-05-10T15:28:45;94686.31;;;12.90;80.32
9538;BME280;4807;48.024;11.726;2023-05-10T15:31:53;94692.31;;;12.68;80.19
9538;BME280;4807;48.024;11.726;2023-05-10T15:35:03;94700.66;;;12.53;81.13
9538;BME280;4807;48.024;11.726;2023-05-10T15:38:12;94690.13;;;12.33;81.15
9538;BME280;4807;48.024;11.726;2023-05-10T15:41:20;94695.06;;;12.36;81.92
9538;BME280;4807;48.024;11.726;2023-05-10T15:44:29;94695.44;;;12.40;82.07
9538;BME280;4807;48.024;11.726;2023-05-10T15:47:38;94685.53;;;12.47;81.55
9538;BME280;4807;48.024;11.726;2023-05-10T15:50:48;94696.28;;;12.34;81.18
9538;BME280;4807;48.024;11.726;2023-05-10T15:53:57;94702.91;;;12.31;81.55
9538;BME280;4807;48.024;11.726;2023-05-10T15:57:13;94698.38;;;12.32;81.08
9538;BME280;4807;48.024;11.726;2023-05-10T16:00:22;94704.81;;;12.24;82.18
9538;BME280;4807;48.024;11.726;2023-05-10T16:03:30;94702.34;;;12.22;81.73
9538;BME280;4807;48.024;11.726;2023-05-10T16:06:42;94705.75;;;12.05;81.73
9538;BME280;4807;48.024;11.726;2023-05-10T16:09:50;94713.34;;;12.08;82.00
9538;BME280;4807;48.024;11.726;2023-05-10T16:12:59;94713.16;;;12.03;82.40
9538;BME280;4807;48.024;11.726;2023-05-10T16:16:09;94717.63;;;12.09;82.23
9538;BME280;4807;48.024;11.726;2023-05-10T16:19:18;94719.88;;;12.12;81.88
9538;BME280;4807;48.024;11.726;2023-05-10T16:22:29;94717.34;;;11.85;81.98
9538;BME280;4807;48.024;11.726;2023-05-10T16:25:38;94725.81;;;11.82;83.72
9538;BME280;4807;48.024;11.726;2023-05-10T16:28:48;94725.19;;;11.80;83.38
9538;BME280;4807;48.024;11.726;2023-05-10T16:31:57;94728.69;;;11.81;83.27
9538;BME280;4807;48.024;11.726;2023-05-10T16:35:07;94732.22;;;11.75;83.38
9538;BME280;4807;48.024;11.726;2023-05-10T16:38:17;94732.81;;;11.70;83.86
9538;BME280;4807;48.024;11.726;2023-05-10T16:41:27;94736.09;;;11.72;83.45
9538;BME280;4807;48.024;11.726;2023-05-10T16:44:36;94732.38;;;11.73;83.69
9538;BME280;4807;48.024;11.726;2023-05-10T16:47:45;94731.16;;;11.69;82.79
9538;BME280;4807;48.024;11.726;2023-05-10T16:50:53;94737.53;;;11.68;82.81
9538;BME280;4807;48.024;11.726;2023-05-10T16:54:04;94736.94;;;11.66;83.43
9538;BME280;4807;48.024;11.726;2023-05-10T16:57:12;94740.22;;;11.62;83.77
9538;BME280;4807;48.024;11.726;2023-05-10T17:00:21;94742.75;;;11.50;84.40
9538;BME280;4807;48.024;11.726;2023-05-10T17:03:29;94746.00;;;11.52;84.39
9538;BME280;4807;48.024;11.726;2023-05-10T17:06:38;94750.78;;;11.37;84.33